createdAt,value
2023-05-25T00:01:00.623Z,7.77
2023-05-25T00:03:29.421Z,7.80
2023-05-25T00:05:56.206Z,7.83
2023-05-25T00:08:22.910Z,7.85
2023-05-25T00:10:49.792Z,7.87
2023-05-25T00:13:16.620Z,7.90
2023-05-25T00:15:43.481Z,7.92
2023-05-25T00:18:10.440Z,7.94
2023-05-25T00:20:37.212Z,7.96
2023-05-25T00:23:04.081Z,7.97
2023-05-25T00:25:30.735Z,7.98
2023-05-25T00:27:57.754Z,7.98
2023-05-25T00:30:24.454Z,7.99
2023-05-25T00:32:51.712Z,7.99
2023-05-25T00:35:18.445Z,7.98
2023-05-25T00:37:45.504Z,7.97
2023-05-25T00:40:16.647Z,7.95
2023-05-25T00:42:44.284Z,7.94
2023-05-25T00:45:11.450Z,7.92
2023-05-25T00:47:39.830Z,7.89
2023-05-25T00:50:09.174Z,7.86
2023-05-25T00:52:36.051Z,7.83
2023-05-25T00:55:03.443Z,7.80
2023-05-25T00:57:34.060Z,7.76
2023-05-25T01:00:02.518Z,7.72
2023-05-25T01:02:29.690Z,7.68
2023-05-25T01:05:01.014Z,7.63
2023-05-25T01:07:29.012Z,7.58
2023-05-25T01:10:01.679Z,7.53
2023-05-25T01:12:34.882Z,7.48
2023-05-25T01:15:02.325Z,7.43
2023-05-25T01:17:29.212Z,7.38
2023-05-25T01:20:09.713Z,7.32
2023-05-25T01:22:38.726Z,7.26
2023-05-25T01:25:28.288Z,7.21
2023-05-25T01:28:07.398Z,7.15
2023-05-25T01:30:37.246Z,7.09
2023-05-25T01:33:05.295Z,7.04
2023-05-25T01:35:32.797Z,6.98
2023-05-25T01:37:59.684Z,6.92
2023-05-25T01:40:27.444Z,6.87
2023-05-25T01:42:54.123Z,6.80
2023-05-25T01:45:20.938Z,6.74
2023-05-25T01:47:58.179Z,6.68
2023-05-25T01:50:31.035Z,6.62
2023-05-25T01:53:03.703Z,6.56
2023-05-25T01:55:34.914Z,6.49
2023-05-25T01:58:02.746Z,6.43
2023-05-25T02:00:33.331Z,6.38
2023-05-25T02:03:01.716Z,6.32
2023-05-25T02:05:28.582Z,6.27
2023-05-25T02:07:55.415Z,6.23
2023-05-25T02:10:22.120Z,6.19
2023-05-25T02:12:49.535Z,6.14
2023-05-25T02:15:16.713Z,6.10
2023-05-25T02:17:43.624Z,6.06
2023-05-25T02:20:11.670Z,6.02
2023-05-25T02:22:38.536Z,5.99
2023-05-25T02:25:09.086Z,5.96
2023-05-25T02:27:36.469Z,5.93
2023-05-25T02:30:03.266Z,5.89
2023-05-25T02:32:31.470Z,5.86
2023-05-25T02:34:58.317Z,5.82
2023-05-25T02:37:25.116Z,5.78
2023-05-25T02:39:51.949Z,5.75
2023-05-25T02:42:19.669Z,5.73
2023-05-25T02:44:48.541Z,5.71
2023-05-25T02:47:19.034Z,5.70
2023-05-25T02:49:46.019Z,5.69
2023-05-25T02:52:13.318Z,5.69
2023-05-25T02:54:40.190Z,5.70
2023-05-25T02:57:08.658Z,5.71
2023-05-25T02:59:35.716Z,5.73
2023-05-25T03:02:03.271Z,5.74
2023-05-25T03:04:33.970Z,5.75
2023-05-25T03:07:01.640Z,5.78
2023-05-25T03:09:28.982Z,5.80
2023-05-25T03:11:55.929Z,5.83
2023-05-25T03:14:22.764Z,5.85
2023-05-25T03:16:55.814Z,5.87
2023-05-25T03:19:23.873Z,5.88
2023-05-25T03:21:50.601Z,5.90
2023-05-25T03:24:18.888Z,5.92
2023-05-25T03:26:45.862Z,5.95
2023-05-25T03:29:12.690Z,5.98
2023-05-25T03:31:39.401Z,6.01
2023-05-25T03:34:06.999Z,6.03
2023-05-25T03:36:37.436Z,6.06
2023-05-25T03:39:05.540Z,6.08
2023-05-25T03:41:32.247Z,6.11
2023-05-25T03:43:58.961Z,6.13
2023-05-25T03:46:25.857Z,6.16
2023-05-25T03:48:52.554Z,6.16
2023-05-25T03:51:19.346Z,6.17
2023-05-25T03:53:46.381Z,6.17
2023-05-25T03:56:13.003Z,6.16
2023-05-25T03:58:39.684Z,6.17
2023-05-25T04:01:06.412Z,6.17
2023-05-25T04:03:33.647Z,6.17
2023-05-25T04:06:00.729Z,6.19
2023-05-25T04:08:28.824Z,6.21
2023-05-25T04:10:56.213Z,6.24
2023-05-25T04:13:23.091Z,6.27
2023-05-25T04:15:50.649Z,6.30
2023-05-25T04:18:20.794Z,6.33
2023-05-25T04:20:48.665Z,6.35
2023-05-25T04:23:16.962Z,6.37
2023-05-25T04:25:45.570Z,6.40
2023-05-25T04:28:14.160Z,6.43
2023-05-25T04:31:08.010Z,6.47
2023-05-25T04:33:49.610Z,6.51
2023-05-25T04:36:38.975Z,6.55
2023-05-25T04:39:07.844Z,6.59
2023-05-25T04:41:39.338Z,6.63
2023-05-25T04:44:10.587Z,6.67
2023-05-25T04:46:45.650Z,6.71
2023-05-25T04:49:19.816Z,6.76
2023-05-25T04:51:46.929Z,6.80
2023-05-25T04:54:14.437Z,6.86
2023-05-25T04:56:41.111Z,6.92
2023-05-25T04:59:07.881Z,6.98
2023-05-25T05:01:40.518Z,7.05
2023-05-25T05:04:09.372Z,7.12
2023-05-25T05:06:36.693Z,7.19
2023-05-25T05:09:04.134Z,7.26
2023-05-25T05:11:30.946Z,7.33
2023-05-25T05:13:59.272Z,7.40
2023-05-25T05:16:26.462Z,7.46
2023-05-25T05:18:53.558Z,7.53
2023-05-25T05:21:23.417Z,7.58
2023-05-25T05:23:50.520Z,7.64
2023-05-25T05:26:17.964Z,7.69
2023-05-25T05:28:45.070Z,7.75
2023-05-25T05:31:12.455Z,7.81
2023-05-25T05:33:40.082Z,7.88
2023-05-25T05:36:06.886Z,7.97
2023-05-25T05:38:33.795Z,8.05
2023-05-25T05:41:01.300Z,8.11
2023-05-25T05:43:28.201Z,8.18
2023-05-25T05:45:54.900Z,8.26
2023-05-25T05:48:21.750Z,8.35
2023-05-25T05:50:49.715Z,8.44
2023-05-25T05:53:17.193Z,8.52
2023-05-25T05:55:44.982Z,8.60
2023-05-25T05:58:13.305Z,8.68
2023-05-25T06:00:40.157Z,8.77
2023-05-25T06:03:08.049Z,8.85
2023-05-25T06:05:35.214Z,8.95
2023-05-25T06:08:04.581Z,9.03
2023-05-25T06:10:34.420Z,9.12
2023-05-25T06:13:01.375Z,9.21
2023-05-25T06:15:28.159Z,9.29
2023-05-25T06:17:58.035Z,9.38
2023-05-25T06:20:24.960Z,9.49
2023-05-25T06:22:51.688Z,9.61
2023-05-25T06:25:18.915Z,9.75
2023-05-25T06:27:46.040Z,9.89
2023-05-25T06:30:13.902Z,10.03
2023-05-25T06:32:41.737Z,10.15
2023-05-25T06:35:09.370Z,10.28
2023-05-25T06:37:38.153Z,10.40
2023-05-25T06:40:09.485Z,10.51
2023-05-25T06:42:37.783Z,10.60
2023-05-25T06:45:05.677Z,10.68
2023-05-25T06:47:32.519Z,10.77
2023-05-25T06:49:59.828Z,10.85
2023-05-25T06:52:29.455Z,10.95
2023-05-25T06:54:56.900Z,11.06
2023-05-25T06:57:24.381Z,11.15
2023-05-25T06:59:51.398Z,11.23
2023-05-25T07:02:18.937Z,11.30
2023-05-25T07:04:46.018Z,11.37
2023-05-25T07:07:14.145Z,11.45
2023-05-25T07:09:41.722Z,11.52
2023-05-25T07:12:10.054Z,11.61
2023-05-25T07:14:37.643Z,11.70
2023-05-25T07:17:04.556Z,11.78
2023-05-25T07:19:31.503Z,11.87
2023-05-25T07:21:58.203Z,11.95
2023-05-25T07:24:24.991Z,12.02
2023-05-25T07:26:51.981Z,12.11
2023-05-25T07:29:18.790Z,12.21
2023-05-25T07:31:45.799Z,12.32
2023-05-25T07:34:12.637Z,12.43
2023-05-25T07:36:39.320Z,12.54
2023-05-25T07:39:06.037Z,12.65
2023-05-25T07:41:33.721Z,12.75
2023-05-25T07:44:00.535Z,12.85
2023-05-25T07:46:27.292Z,12.94
2023-05-25T07:48:55.060Z,13.04
2023-05-25T07:51:23.431Z,13.14
2023-05-25T07:53:50.268Z,13.24
2023-05-25T07:56:17.422Z,13.34
2023-05-25T07:58:44.167Z,13.45
2023-05-25T08:01:10.818Z,13.56
2023-05-25T08:03:48.915Z,13.68
2023-05-25T08:06:16.822Z,13.77
2023-05-25T08:08:45.221Z,13.87
2023-05-25T08:11:12.051Z,13.97
2023-05-25T08:13:39.207Z,14.07
2023-05-25T08:16:06.155Z,14.17
2023-05-25T08:18:32.881Z,14.25
2023-05-25T08:20:59.583Z,14.33
2023-05-25T08:23:26.198Z,14.39
2023-05-25T08:25:53.552Z,14.46
2023-05-25T08:28:23.325Z,14.52
2023-05-25T08:30:50.221Z,14.59
2023-05-25T08:33:16.969Z,14.66
2023-05-25T08:35:44.109Z,14.72
2023-05-25T08:38:10.974Z,14.76
2023-05-25T08:40:39.037Z,14.82
2023-05-25T08:43:05.802Z,14.88
2023-05-25T08:45:35.323Z,14.95
2023-05-25T08:48:04.528Z,15.03
2023-05-25T08:50:34.992Z,15.11
2023-05-25T08:53:02.912Z,15.20
2023-05-25T08:55:31.169Z,15.29
2023-05-25T08:58:11.952Z,15.37
2023-05-25T09:00:44.038Z,15.44
2023-05-25T09:03:14.325Z,15.51
2023-05-25T09:05:41.191Z,15.56
2023-05-25T09:08:08.785Z,15.61
2023-05-25T09:10:36.404Z,15.67
2023-05-25T09:13:19.119Z,15.73
2023-05-25T09:15:48.370Z,15.77
2023-05-25T09:18:15.002Z,15.81
2023-05-25T09:20:44.261Z,15.85
2023-05-25T09:23:13.690Z,15.89
2023-05-25T09:25:41.108Z,15.93
2023-05-25T09:28:25.711Z,15.96
2023-05-25T09:30:53.824Z,16.00
2023-05-25T09:33:21.243Z,16.05
2023-05-25T09:35:48.370Z,16.09
2023-05-25T09:38:16.511Z,16.15
2023-05-25T09:40:44.089Z,16.19
2023-05-25T09:43:17.265Z,16.23
2023-05-25T09:45:49.221Z,16.29
2023-05-25T09:48:16.234Z,16.35
2023-05-25T09:50:43.491Z,16.41
2023-05-25T09:53:11.284Z,16.46
2023-05-25T09:55:52.164Z,16.50
2023-05-25T09:58:19.756Z,16.55
2023-05-25T10:00:46.907Z,16.60
2023-05-25T10:03:15.557Z,16.68
2023-05-25T10:05:42.438Z,16.75
2023-05-25T10:08:10.236Z,16.83
2023-05-25T10:10:37.962Z,16.90
2023-05-25T10:13:06.330Z,16.96
2023-05-25T10:15:33.147Z,17.03
2023-05-25T10:18:01.838Z,17.12
2023-05-25T10:20:56.613Z,17.22
2023-05-25T10:23:17.621Z,17.33
2023-05-25T10:25:45.976Z,17.44
2023-05-25T10:28:27.089Z,17.55
2023-05-25T10:30:55.319Z,17.68
2023-05-25T10:33:22.045Z,17.79
2023-05-25T10:36:02.419Z,17.89
2023-05-25T10:38:36.424Z,18.01
2023-05-25T10:41:04.442Z,18.14
2023-05-25T10:43:31.564Z,18.23
2023-05-25T10:45:58.307Z,18.33
2023-05-25T10:48:35.515Z,18.44
2023-05-25T10:51:02.292Z,18.54
2023-05-25T10:53:28.980Z,18.62
2023-05-25T10:55:58.395Z,18.68
2023-05-25T10:58:27.278Z,18.71
2023-05-25T11:01:01.622Z,18.72
2023-05-25T11:03:47.166Z,18.74
2023-05-25T11:06:18.412Z,18.72
2023-05-25T11:08:54.255Z,18.74
2023-05-25T11:11:22.334Z,18.76
2023-05-25T11:13:50.029Z,18.79
2023-05-25T11:16:20.694Z,18.83
2023-05-25T11:18:58.614Z,18.87
2023-05-25T11:21:28.568Z,18.91
2023-05-25T11:23:56.149Z,18.95
2023-05-25T11:26:24.670Z,19.02
2023-05-25T11:28:52.465Z,19.03
2023-05-25T11:31:31.601Z,19.07
2023-05-25T11:34:01.114Z,19.12
2023-05-25T11:36:31.517Z,19.18
2023-05-25T11:39:04.959Z,19.24
2023-05-25T11:41:40.203Z,19.28
2023-05-25T11:44:07.102Z,19.32
2023-05-25T11:46:35.042Z,19.38
2023-05-25T11:49:01.935Z,19.47
2023-05-25T11:51:29.924Z,19.59
2023-05-25T11:53:56.820Z,19.67
2023-05-25T11:56:34.167Z,19.72
2023-05-25T11:59:02.223Z,19.74
2023-05-25T12:01:31.985Z,19.77
2023-05-25T12:03:59.049Z,19.79
2023-05-25T12:06:36.838Z,19.83
2023-05-25T12:09:05.566Z,19.86
2023-05-25T12:11:39.352Z,19.85
2023-05-25T12:14:07.677Z,19.82
2023-05-25T12:16:37.162Z,19.79
2023-05-25T12:19:04.105Z,19.77
2023-05-25T12:21:31.768Z,19.75
2023-05-25T12:23:58.838Z,19.77
2023-05-25T12:26:26.379Z,19.82
2023-05-25T12:29:03.348Z,19.87
2023-05-25T12:31:31.760Z,19.95
2023-05-25T12:34:11.646Z,20.02
2023-05-25T12:36:54.038Z,20.08
2023-05-25T12:39:29.710Z,20.13
2023-05-25T12:41:57.101Z,20.18
2023-05-25T12:44:27.626Z,20.22
2023-05-25T12:46:56.091Z,20.24
2023-05-25T12:49:33.912Z,20.25
2023-05-25T12:52:02.320Z,20.28
2023-05-25T12:54:35.790Z,20.28
2023-05-25T12:57:03.918Z,20.29
2023-05-25T12:59:31.439Z,20.29
2023-05-25T13:01:58.183Z,20.30
2023-05-25T13:04:24.978Z,20.27
2023-05-25T13:06:52.341Z,20.24
2023-05-25T13:09:18.974Z,20.23
2023-05-25T13:11:45.901Z,20.24
2023-05-25T13:14:12.520Z,20.27
2023-05-25T13:16:39.548Z,20.32
2023-05-25T13:19:06.372Z,20.38
2023-05-25T13:21:33.028Z,20.42
2023-05-25T13:23:59.606Z,20.46
2023-05-25T13:26:26.463Z,20.50
2023-05-25T13:28:53.107Z,20.56
2023-05-25T13:31:19.881Z,20.63
2023-05-25T13:33:46.925Z,20.70
2023-05-25T13:36:13.672Z,20.76
2023-05-25T13:38:40.321Z,20.80
2023-05-25T13:41:07.078Z,20.83
2023-05-25T13:43:33.890Z,20.87
2023-05-25T13:46:00.628Z,20.94
2023-05-25T13:48:27.373Z,20.97
2023-05-25T13:50:54.168Z,21.00
2023-05-25T13:53:20.778Z,21.05
2023-05-25T13:55:47.817Z,21.12
2023-05-25T13:58:14.502Z,21.17
2023-05-25T14:00:41.215Z,21.25
2023-05-25T14:03:08.096Z,21.34
2023-05-25T14:05:34.981Z,21.42
2023-05-25T14:08:04.592Z,21.50
2023-05-25T14:10:31.784Z,21.56
2023-05-25T14:12:58.679Z,21.64
2023-05-25T14:15:25.612Z,21.71
2023-05-25T14:17:53.370Z,21.78
2023-05-25T14:20:25.762Z,21.82
2023-05-25T14:22:53.470Z,21.88
2023-05-25T14:25:20.211Z,21.91
2023-05-25T14:27:46.888Z,21.98
2023-05-25T14:30:13.647Z,22.05
2023-05-25T14:32:40.502Z,22.11
2023-05-25T14:35:07.522Z,22.17
2023-05-25T14:37:34.230Z,22.22
2023-05-25T14:40:00.955Z,22.28
2023-05-25T14:42:29.244Z,22.35
2023-05-25T14:44:56.814Z,22.43
2023-05-25T14:47:23.502Z,22.55
2023-05-25T14:49:50.203Z,22.70
2023-05-25T14:52:16.922Z,22.85
2023-05-25T14:54:44.888Z,22.98
2023-05-25T14:57:12.272Z,23.06
2023-05-25T14:59:39.184Z,23.14
2023-05-25T15:02:06.464Z,23.22
2023-05-25T15:04:33.184Z,23.28
2023-05-25T15:09:26.474Z,23.34
2023-05-25T15:11:53.221Z,23.41
2023-05-25T15:14:19.858Z,23.49
2023-05-25T15:16:46.574Z,23.57
2023-05-25T15:19:15.932Z,23.62
2023-05-25T15:21:44.223Z,23.62
2023-05-25T15:24:13.782Z,23.63
2023-05-25T15:26:40.709Z,23.67
2023-05-25T15:29:07.409Z,23.82
2023-05-25T15:31:34.176Z,24.05
2023-05-25T15:34:00.984Z,24.44
2023-05-25T15:36:28.148Z,24.83
2023-05-25T15:38:54.873Z,25.32
2023-05-25T15:41:21.914Z,25.80
2023-05-25T15:43:52.695Z,26.28
2023-05-25T15:46:19.585Z,26.76
2023-05-25T15:48:46.253Z,27.25
2023-05-25T15:51:12.963Z,27.71
2023-05-25T15:53:39.731Z,27.99
2023-05-25T15:56:06.629Z,28.31
2023-05-25T15:58:34.485Z,28.61
2023-05-25T16:01:01.690Z,28.91
2023-05-25T16:03:29.255Z,29.19
2023-05-25T16:05:56.507Z,29.46
2023-05-25T16:08:23.743Z,29.64
2023-05-25T16:10:50.586Z,29.78
2023-05-25T16:13:17.290Z,30.07
2023-05-25T16:15:44.450Z,30.40
2023-05-25T16:18:11.554Z,30.78
2023-05-25T16:20:38.428Z,31.19
2023-05-25T16:23:05.151Z,31.62
2023-05-25T16:25:31.823Z,31.98
2023-05-25T16:27:58.569Z,32.36
2023-05-25T16:30:25.385Z,32.76
2023-05-25T16:32:52.111Z,33.06
2023-05-25T16:35:20.043Z,33.43
2023-05-25T16:37:46.817Z,33.74
2023-05-25T16:40:13.536Z,34.03
2023-05-25T16:42:40.193Z,34.34
2023-05-25T16:45:07.306Z,34.62
2023-05-25T16:47:34.011Z,34.87
2023-05-25T16:50:00.898Z,35.16
2023-05-25T16:52:27.604Z,35.39
2023-05-25T16:54:55.280Z,35.57
2023-05-25T16:57:22.012Z,35.69
2023-05-25T16:59:48.775Z,35.82
2023-05-25T17:02:15.472Z,35.80
2023-05-25T17:04:42.249Z,35.77
2023-05-25T17:07:08.960Z,35.79
2023-05-25T17:09:35.781Z,35.72
2023-05-25T17:12:03.716Z,35.63
2023-05-25T17:14:31.014Z,35.47
2023-05-25T17:16:57.685Z,35.31
2023-05-25T17:19:24.481Z,35.18
2023-05-25T17:21:51.241Z,35.07
2023-05-25T17:24:18.148Z,35.05
2023-05-25T17:26:46.480Z,35.12
2023-05-25T17:29:13.295Z,35.11
2023-05-25T17:31:39.988Z,35.02
2023-05-25T17:34:06.777Z,34.87
2023-05-25T17:36:33.374Z,34.74
2023-05-25T17:39:00.152Z,34.62
2023-05-25T17:41:26.979Z,34.39
2023-05-25T17:43:53.672Z,34.17
2023-05-25T17:46:20.470Z,34.00
2023-05-25T17:48:47.218Z,33.79
2023-05-25T17:51:14.022Z,33.56
2023-05-25T17:53:40.817Z,33.28
2023-05-25T17:56:08.618Z,32.95
2023-05-25T17:58:36.178Z,32.54
2023-05-25T18:01:03.131Z,32.07
2023-05-25T18:03:30.229Z,31.57
2023-05-25T18:05:57.115Z,31.05
2023-05-25T18:08:23.733Z,30.50
2023-05-25T18:10:51.558Z,29.95
2023-05-25T18:13:18.196Z,29.43
2023-05-25T18:15:45.230Z,28.94
2023-05-25T18:18:14.692Z,28.46
2023-05-25T18:20:41.457Z,28.00
2023-05-25T18:23:08.440Z,27.55
2023-05-25T18:25:35.156Z,27.10
2023-05-25T18:28:01.824Z,26.65
2023-05-25T18:30:28.521Z,26.23
2023-05-25T18:32:55.202Z,25.83
2023-05-25T18:35:22.000Z,25.44
2023-05-25T18:37:48.723Z,25.05
2023-05-25T18:40:16.445Z,24.67
2023-05-25T18:42:43.181Z,24.30
2023-05-25T18:45:10.271Z,23.96
2023-05-25T18:47:36.982Z,23.63
2023-05-25T18:50:04.387Z,23.32
2023-05-25T18:52:31.051Z,23.00
2023-05-25T18:54:57.908Z,22.68
2023-05-25T18:57:24.564Z,22.36
2023-05-25T18:59:52.204Z,22.05
2023-05-25T19:02:18.937Z,21.75
2023-05-25T19:04:45.720Z,21.46
2023-05-25T19:07:12.613Z,21.17
2023-05-25T19:09:39.362Z,20.88
2023-05-25T19:12:07.322Z,20.60
2023-05-25T19:14:34.282Z,20.32
2023-05-25T19:17:02.121Z,20.05
2023-05-25T19:19:28.846Z,19.79
2023-05-25T19:21:55.526Z,19.53
2023-05-25T19:24:22.252Z,19.28
2023-05-25T19:26:49.930Z,19.04
2023-05-25T19:29:16.933Z,18.80
2023-05-25T19:31:43.709Z,18.57
2023-05-25T19:34:10.691Z,18.33
2023-05-25T19:36:37.593Z,18.11
2023-05-25T19:39:05.002Z,17.89
2023-05-25T19:41:31.816Z,17.67
2023-05-25T19:43:58.495Z,17.48
2023-05-25T19:46:25.238Z,17.29
2023-05-25T19:48:52.274Z,17.10
2023-05-25T19:51:19.009Z,16.91
2023-05-25T19:53:48.050Z,16.72
2023-05-25T19:56:14.754Z,16.54
2023-05-25T19:58:41.509Z,16.37
2023-05-25T20:01:08.242Z,16.20
2023-05-25T20:03:35.419Z,16.05
2023-05-25T20:06:02.155Z,15.89
2023-05-25T20:08:28.965Z,15.75
2023-05-25T20:10:55.711Z,15.60
2023-05-25T20:13:22.510Z,15.46
2023-05-25T20:15:49.266Z,15.33
2023-05-25T20:18:16.064Z,15.19
2023-05-25T20:20:42.892Z,15.06
2023-05-25T20:23:09.850Z,14.93
2023-05-25T20:25:36.816Z,14.81
2023-05-25T20:28:03.736Z,14.70
2023-05-25T20:30:30.505Z,14.58
2023-05-25T20:32:57.234Z,14.47
2023-05-25T20:35:24.196Z,14.36
2023-05-25T20:37:50.971Z,14.25
2023-05-25T20:40:17.691Z,14.15
2023-05-25T20:42:44.426Z,14.06
2023-05-25T20:45:11.262Z,13.96
2023-05-25T20:47:40.019Z,13.87
2023-05-25T20:50:07.178Z,13.78
2023-05-25T20:52:34.647Z,13.69
2023-05-25T20:55:01.558Z,13.60
2023-05-25T20:57:30.105Z,13.52
2023-05-25T20:59:59.913Z,13.43
2023-05-25T21:02:28.754Z,13.35
2023-05-25T21:04:55.553Z,13.26
2023-05-25T21:07:22.350Z,13.17
2023-05-25T21:09:49.158Z,13.11
2023-05-25T21:12:16.121Z,13.04
2023-05-25T21:14:42.956Z,12.98
2023-05-25T21:17:09.661Z,12.91
2023-05-25T21:19:36.526Z,12.84
2023-05-25T21:22:03.256Z,12.77
2023-05-25T21:24:30.002Z,12.70
2023-05-25T21:26:56.657Z,12.64
2023-05-25T21:29:23.452Z,12.57
2023-05-25T21:31:50.283Z,12.51
2023-05-25T21:34:17.015Z,12.45
2023-05-25T21:36:43.741Z,12.39
2023-05-25T21:39:10.674Z,12.33
2023-05-25T21:41:37.646Z,12.28
2023-05-25T21:44:04.676Z,12.23
2023-05-25T21:46:31.369Z,12.18
2023-05-25T21:48:58.097Z,12.13
2023-05-25T21:51:25.050Z,12.09
2023-05-25T21:53:51.874Z,12.04
2023-05-25T21:56:18.572Z,11.99
2023-05-25T21:58:45.506Z,11.95
2023-05-25T22:01:12.287Z,11.92
2023-05-25T22:03:39.934Z,11.88
2023-05-25T22:06:06.796Z,11.84
2023-05-25T22:08:33.789Z,11.81
2023-05-25T22:11:00.512Z,11.76
2023-05-25T22:13:27.248Z,11.71
2023-05-25T22:15:53.878Z,11.67
2023-05-25T22:18:20.651Z,11.62
2023-05-25T22:20:47.306Z,11.58
2023-05-25T22:23:14.184Z,11.54
2023-05-25T22:25:41.446Z,11.50
2023-05-25T22:28:08.348Z,11.46
2023-05-25T22:30:35.020Z,11.43
2023-05-25T22:33:02.012Z,11.40
2023-05-25T22:35:28.694Z,11.37
2023-05-25T22:37:55.451Z,11.34
2023-05-25T22:40:22.244Z,11.30
2023-05-25T22:42:51.705Z,11.27
2023-05-25T22:45:18.738Z,11.23
2023-05-25T22:47:45.599Z,11.20
2023-05-25T22:50:12.864Z,11.17
2023-05-25T22:52:42.634Z,11.13
2023-05-25T22:55:09.705Z,11.09
2023-05-25T22:57:36.511Z,11.05
2023-05-25T23:00:04.622Z,11.01
2023-05-25T23:02:31.334Z,10.98
2023-05-25T23:04:58.188Z,10.95
2023-05-25T23:07:24.852Z,10.92
2023-05-25T23:09:51.647Z,10.88
2023-05-25T23:12:18.392Z,10.85
2023-05-25T23:14:45.143Z,10.82
2023-05-25T23:17:11.825Z,10.78
2023-05-25T23:19:40.254Z,10.75
2023-05-25T23:22:07.031Z,10.72
2023-05-25T23:24:33.853Z,10.69
2023-05-25T23:27:00.812Z,10.65
2023-05-25T23:29:27.507Z,10.62
2023-05-25T23:31:54.473Z,10.59
2023-05-25T23:34:21.347Z,10.56
2023-05-25T23:36:48.636Z,10.53
2023-05-25T23:39:15.387Z,10.50
2023-05-25T23:41:42.037Z,10.48
2023-05-25T23:44:08.712Z,10.45
2023-05-25T23:46:35.573Z,10.43
2023-05-25T23:49:02.320Z,10.40
2023-05-25T23:51:29.087Z,10.38
2023-05-25T23:53:55.787Z,10.36
2023-05-25T23:56:22.544Z,10.33
2023-05-25T23:58:49.451Z,10.32
